Flight Track Log - Related Links

Times and Time Zones

All times are in EDT time to prevent confusion due to time zone crossing. See the EJA929 flight status page for this flight to view local times or setup timezone preferences in your user account.

Time Position Orientation Groundspeed Altitude Reporting Facility
EDT Latitude Longitude Course Direction KTS MPH feet Rate Location/Type
Wed 03:19:20 PM 37.9564 -107.9211 64° Northeast 193 222 9,000  Level Denver Center
Wed 03:20:22 PM 37.9650 -107.9731 282° West 195 224 11,400 2,419 Climbing Denver Center
Wed 03:21:24 PM 37.9886 -108.0836 285° West 281 323 14,000 2,323 Climbing Denver Center
Wed 03:22:26 PM 38.0650 -108.0958 353° North 311 358 16,200 2,177 Climbing Denver Center
Wed 03:23:00 PM 38.2044 -107.7492 72° East  Level FlightAware Approximate
Wed 03:23:28 PM 38.1136 -108.0108 54° Northeast 305 351 18,500  Level Denver Center
Wed 03:24:00 PM 38.2487 -107.6092 64° Northeast  Level FlightAware Approximate
Wed 03:24:30 PM 38.1533 -107.8989 66° East 310 357 20,000  Level Denver Center
Wed 03:25:32 PM 38.2242 -107.7722 55° Northeast 387 445 21,400 1,920 Climbing Denver Center
Wed 03:26:35 PM 38.2831 -107.6678 54° Northeast 385 443 24,000 1,314 Climbing Denver Center
Wed 03:27:49 PM 38.3878 -107.5739 35° Northeast 420 483 24,400 926 Climbing Denver Center
Wed 03:28:51 PM 38.5114 -107.4972 26° Northeast 439 505 26,100 1,597 Climbing Denver Center
Wed 03:29:53 PM 38.6439 -107.4306 21° North 455 524 27,700 1,839 Climbing Denver Center
Wed 03:30:55 PM 38.7544 -107.3711 23° Northeast 450 518 29,900 1,161 Climbing Denver Center
Wed 03:31:57 PM 38.8822 -107.2844 28° Northeast 479 551 30,100 629 Climbing Denver Center
Wed 03:32:59 PM 38.9711 -107.1536 49° Northeast 505 581 31,200 1,452 Climbing Denver Center
Wed 03:34:01 PM 39.0692 -107.0064 49° Northeast 494 568 33,100 1,588 Climbing Denver Center
Wed 03:35:15 PM 39.1425 -106.8664 56° Northeast 496 571 34,800 1,500 Climbing Denver Center
Wed 03:36:17 PM 39.1703 -106.6422 81° East 503 579 36,500 2,081 Climbing Denver Center
Wed 03:37:19 PM 39.1811 -106.4772 85° East 485 558 39,100 2,129 Climbing Denver Center
Wed 03:38:21 PM 39.1908 -106.2917 86° East 467 537 40,900 968 Climbing Denver Center
Wed 03:39:23 PM 39.1875 -106.1214 91° East 484 557 41,100 48 Climbing Denver Center
Wed 03:40:25 PM 39.1744 -105.9403 95° East 508 585 41,000  Descending Denver Center
Wed 03:41:39 PM 39.1522 -105.7625 99° East 508 585 41,100 44 Climbing Denver Center
Wed 03:42:41 PM 39.1472 -105.5075 91° East 519 597 41,100  Level Denver Center
Wed 03:43:43 PM 39.1597 -105.3256 85° East 514 592 41,100  Level Denver Center
Wed 03:44:45 PM 39.1708 -105.1444 85° East 511 588 41,100  Level Denver Center
Wed 03:45:47 PM 39.1806 -104.9617 86° East 516 594 41,100  Level Denver Center
Wed 03:46:49 PM 39.1906 -104.7825 86° East 509 586 41,100 532 Level Denver Center
Wed 03:47:51 PM 39.2011 -104.5642 86° East 515 593 42,200 968 Climbing Denver Center
Wed 03:48:53 PM 39.2103 -104.3867 86° East 506 582 43,100 435 Climbing Denver Center
Wed 03:49:55 PM 39.2197 -104.2056 86° East 511 588 43,100  Level Denver Center
Wed 03:50:57 PM 39.2286 -104.0261 86° East 505 581 43,100  Level Denver Center
Wed 03:51:59 PM 39.2369 -103.8419 87° East 515 593 43,100  Level Denver Center
Wed 03:53:01 PM 39.2456 -103.6583 86° East 517 595 43,100  Level Denver Center
Wed 03:54:03 PM 39.2547 -103.4397 87° East 511 588 43,100  Level Denver Center
Wed 03:55:05 PM 39.2628 -103.2564 87° East 514 592 43,100 -48 Level Denver Center
Wed 03:56:07 PM 39.2689 -103.0733 87° East 513 590 43,000  Descending Denver Center
Wed 03:57:09 PM 39.2781 -102.8928 86° East 508 585 43,100 48 Climbing Denver Center
Wed 03:58:11 PM 39.2842 -102.6811 88° East 513 590 43,100  Level Denver Center
Wed 03:59:13 PM 39.2906 -102.5061 87° East 512 589 43,100  Level Denver Center
Wed 04:00:15 PM 39.2972 -102.3017 88° East 510 587 43,100  Level Denver Center
Wed 04:01:17 PM 39.3028 -102.1250 88° East 513 590 43,100  Level Denver Center
Wed 04:02:19 PM 39.3089 -101.9206 88° East 513 590 43,100  Level Denver Center
Wed 04:03:21 PM 39.3139 -101.7431 88° East 516 594 43,100  Level Denver Center
Wed 04:05:13 PM 39.3231 -101.3889 88° East 515 593 43,100  Level Kansas City Center
Wed 04:06:27 PM 39.3283 -101.1739 88° East 513 590 43,100  Level Denver Center
Wed 04:07:29 PM 39.3328 -100.9675 88° East 515 593 43,100  Level Denver Center
Wed 04:08:31 PM 39.3361 -100.7900 89° East 517 595 43,100  Level Denver Center
Wed 04:09:33 PM 39.3394 -100.6125 89° East 518 596 43,100  Level Denver Center
Wed 04:10:35 PM 39.3433 -100.4039 89° East 522 601 43,100  Level Denver Center
Wed 04:11:49 PM 39.3458 -100.2261 89° East 521 600 43,100  Level Denver Center
Wed 04:12:51 PM 39.3497 -99.9886 89° East 519 597 43,100  Level Denver Center
Wed 04:13:53 PM 39.3511 -99.7789 89° East 523 602 43,100  Level Denver Center
Wed 04:14:55 PM 39.3531 -99.5994 89° East 524 603 43,100  Level Denver Center
Wed 04:15:57 PM 39.3547 -99.3894 89° East 526 605 43,100  Level Denver Center
Wed 04:16:59 PM 39.3572 -99.2097 89° East 524 603 43,100  Level Denver Center
Wed 04:17:37 PM 39.3572 -99.0786 90° East 526 605 43,100  Level Kansas City Center
Wed 04:18:39 PM 39.3594 -98.8894 89° East 525 604 43,100 -48 Level Kansas City Center
Wed 04:19:41 PM 39.3631 -98.6936 89° East 522 601 43,000  Descending Kansas City Center
Wed 04:20:43 PM 39.3897 -98.5228 79° East 529 609 43,100 48 Climbing Kansas City Center
Wed 04:21:45 PM 39.4258 -98.3022 78° East 523 602 43,100  Level Kansas City Center
Wed 04:22:47 PM 39.4519 -98.1353 78° East 513 590 43,100 -48 Level Kansas City Center
Wed 04:23:50 PM 39.4844 -97.9331 78° East 514 592 43,000 -384 Descending Kansas City Center
Wed 04:24:52 PM 39.5108 -97.7597 79° East 515 593 42,300 -1,210 Descending Kansas City Center
Wed 04:25:54 PM 39.5406 -97.5742 78° East 522 601 40,500 -1,790 Descending Kansas City Center
Wed 04:26:56 PM 39.5669 -97.4028 79° East 499 574 38,600 -2,129 Descending Kansas City Center
Wed 04:27:58 PM 39.5972 -97.1967 79° East 487 560 36,100 -2,081 Descending Kansas City Center
Wed 04:29:00 PM 39.6231 -97.0308 79° East 517 595 34,300 -1,887 Descending Kansas City Center
Wed 04:30:02 PM 39.6508 -96.8364 79° East 525 604 32,200 -2,129 Descending Kansas City Center
Wed 04:31:04 PM 39.6819 -96.6294 79° East 523 602 29,900 -2,032 Descending Kansas City Center
Wed 04:32:06 PM 39.7058 -96.4592 80° East 507 583 28,000 -2,032 Descending Kansas City Center
Wed 04:33:08 PM 39.7339 -96.2653 79° East 492 566 25,700 -2,032 Descending Kansas City Center
Wed 04:34:10 PM 39.7578 -96.0950 80° East 495 570 23,800 -2,032 Descending Kansas City Center
Wed 04:35:12 PM 39.7853 -95.8975 80° East 497 572 21,500 -2,032 Descending Kansas City Center
Wed 04:36:14 PM 39.8089 -95.7378 79° East 470 541 19,600 -2,226 Descending Kansas City Center
Wed 04:37:16 PM 39.8292 -95.5853 80° East 451 519 16,900 -2,226 Descending Kansas City Center
Wed 04:38:18 PM 39.8231 -95.4181 93° East 418 481 15,000 -1,790 Descending Kansas City Center
Wed 04:39:20 PM 39.7453 -95.3108 133° Southeast 425 489 13,200 -1,984 Descending Kansas City Center
Wed 04:40:22 PM 39.6475 -95.2053 140° Southeast 403 464 10,900 -1,742 Descending Kansas City Center
Wed 04:41:24 PM 39.6217 -95.1075 109° East 313 360 9,600 -1,403 Descending Kansas City Center
Wed 04:42:26 PM 39.6122 -94.9981 96° East 274 315 8,000 -1,500 Descending Kansas City Center
Wed 04:43:28 PM 39.5939 -94.9056 104° East 280 322 6,500 -968 Descending Kansas City Center
Wed 04:44:30 PM 39.5508 -94.8236 124° Southeast 243 280 6,000 -726 Descending Kansas City Center
Wed 04:45:32 PM 39.5183 -94.7619 124° Southeast 219 252 5,000 -968 Descending Kansas City Center
Wed 04:46:34 PM 39.4867 -94.6997 123° Southeast 215 247 4,000 -726 Descending Kansas City Center
Wed 04:47:36 PM 39.4419 -94.6861 167° South 152 175 3,500 -629 Descending Kansas City Center
Wed 04:48:38 PM 39.4064 -94.6969 193° South 137 158 2,700 -726 Descending Kansas City Center
Wed 04:49:40 PM 39.3669 -94.7075 192° South 130 150 2,000 -677 Descending Kansas City Center
Wed 04:50:42 PM 39.3333 -94.7178 193° South 129 148 1,300 -484 Descending Kansas City Center
Wed 04:51:44 PM 39.2969 -94.7281 192° South 130 150 1,000 -290 Descending Kansas City Center

Login

Don't have an account? Register now (free) for customized features, flight alerts, and more!